In Rescue
 
Open Full Screen Window  High Contrast Mode
Wind Gusting 00 knots
07
March 29, 2020 7:32 PM CDT
Weather Information
Wind Direction
  310 °
Wind Speed
  07 kt (8 mph)
Wind Gust
  00 kt (0 mph)
Altimeter
29.98 in
Visibility
10 SM
Temperature
08° C
46° F
Dewpoint
-08° C
18° F
Humidity
32%
1hr Rain Fall
00.00 in.
24hr Rain Fall
00.00 in.
Sky Condition
Clear
VFR

METAR KXVG 300032Z AUTO 31007KT 10SM CLR 08/M08 A2998 RMK AO2

FAA Disclaimer: The data displayed is for advisory purposes only and is not to be used for flight planning or operations.